Aérodrome :
LOGIN :

S'inscrire | Disclaimer

   EN    FR    IT 

 










Légende :    VFR   VFR Marginal   IFR   IFR Intensif   IFR Très Intensif
Visi : 
Plafond : 
>= 8 km
>= 3000ft
5 à 8 km
1000 à 3000 ft
1500m à 5 km
500 à 1000 ft
800 à 1500m
200 à 500 ft
< 800m
< 200 ft
Symboles :   Orages  Brouillard  Fortes neiges  Fortes précipitations  Vent > 20 kt
SIGMETs :   Divers  Orages  Givrage  Turbulence  Onde Orograph.  Cendres Volcan.






- Altitude de l'aérodrome : 325 ft
- Code IATA : BES


LFRB - Brest

DERNIER METAR :
  • 190100Z AUTO 26004KT 4100 0800 R25/1100U R07/P2000 BCFG VV/// 09/08 Q1016 TEMPO 0500 FG

METARs EXPIRÉS :
  • 190030Z AUTO 28002KT 2900 0900 R25/1400D R07/1700U BCFG NSC 11/10 Q1016 TEMPO 0500 FG VV///
  • 190000Z AUTO 30003KT 9999 3600 NSC 11/10 Q1016 TEMPO 0500 FG VV///
  • 182330Z AUTO 34002KT CAVOK 12/11 Q1016 TEMPO 0500 FG VV///
  • 182300Z AUTO VRB02KT CAVOK 13/12 Q1016 TEMPO 0500 FG VV///
  • 182230Z AUTO 32006KT CAVOK 13/12 Q1016 TEMPO 0500 FG VV///

TAF TAF LFRB
Valide du 19 à 00h jusqu'au 20 à 06h UTC


182300Z 1900/2006 VRB05KT 9999 BKN020
PROB40
TEMPO 1900/1905 3000 BR
PROB30
TEMPO 1900/1905 0500 FG VV///
TEMPO 1905/1914 4000 SHRA BKN008 BKN020TCU SCT025CB
BECMG 1908/1910 30010KT
PROB40
TEMPO 1921/2006 4000 SHRA BKN025CB
ATIS : +33 2 98 32 02 71



MET'MAP, la Météo Aéronautique d'un coup d'oeil ! - Copyright ORBIFLY Décembre 2007 - Disclaimer

ORBIFLY MET'MAP TEAM :

Programmation & Développement : Alexandra Zaïnal
Sur une idée originale de : Baudouin d'Aumeries
Assistance à la programmation : Marc-Olivier Méhu
Soutien technique & logistique : Manuel Goepfert

Contact : metmap@orbifly.com




SOURCES & CREDITS :

   NOAA